createdAt,value
2022-12-20T00:00:19.505Z,-5.11
2022-12-20T00:02:50.687Z,-5.09
2022-12-20T00:05:20.208Z,-5.07
2022-12-20T00:07:49.583Z,-5.06
2022-12-20T00:10:19.338Z,-5.04
2022-12-20T00:12:49.716Z,-5.00
2022-12-20T00:15:19.344Z,-4.89
2022-12-20T00:17:49.217Z,-4.86
2022-12-20T00:20:20.052Z,-4.76
2022-12-20T00:22:51.203Z,-4.76
2022-12-20T00:25:20.807Z,-4.68
2022-12-20T00:27:50.396Z,-4.61
2022-12-20T00:30:20.313Z,-4.41
2022-12-20T00:32:49.835Z,-4.41
2022-12-20T00:35:19.436Z,-4.26
2022-12-20T00:37:50.000Z,-4.21
2022-12-20T00:40:19.783Z,-4.21
2022-12-20T00:42:48.935Z,-4.12
2022-12-20T00:45:18.397Z,-4.11
2022-12-20T00:47:47.794Z,-4.10
2022-12-20T00:50:17.007Z,-4.08
2022-12-20T00:52:47.561Z,-4.09
2022-12-20T00:55:17.259Z,-4.07
2022-12-20T00:57:46.168Z,-4.06
2022-12-20T01:00:17.382Z,-4.07
2022-12-20T01:02:46.850Z,-4.10
2022-12-20T01:05:16.105Z,-4.15
2022-12-20T01:07:46.982Z,-4.22
2022-12-20T01:10:18.257Z,-4.23
2022-12-20T01:12:48.137Z,-4.20
2022-12-20T01:15:16.730Z,-4.15
2022-12-20T01:17:45.939Z,-4.19
2022-12-20T01:20:16.109Z,-4.23
2022-12-20T01:22:47.841Z,-4.29
2022-12-20T01:25:18.102Z,-4.35
2022-12-20T01:27:49.792Z,-4.42
2022-12-20T01:30:20.239Z,-4.48
2022-12-20T01:32:49.508Z,-4.50
2022-12-20T01:35:18.711Z,-4.53
2022-12-20T01:37:48.103Z,-4.56
2022-12-20T01:40:19.662Z,-4.61
2022-12-20T01:42:49.902Z,-4.66
2022-12-20T01:45:29.581Z,-4.70
2022-12-20T01:47:59.337Z,-4.73
2022-12-20T01:50:29.513Z,-4.75
2022-12-20T01:52:59.907Z,-4.77
2022-12-20T01:55:29.327Z,-4.77
2022-12-20T01:58:09.366Z,-4.77
2022-12-20T02:00:39.050Z,-4.75
2022-12-20T02:03:10.372Z,-4.77
2022-12-20T02:05:45.314Z,-4.77
2022-12-20T02:08:18.444Z,-4.79
2022-12-20T02:11:12.337Z,-4.79
2022-12-20T02:14:00.103Z,-4.75
2022-12-20T02:16:32.286Z,-4.74
2022-12-20T02:19:55.914Z,-4.76
2022-12-20T02:23:03.769Z,-4.76
2022-12-20T02:26:19.908Z,-4.70
2022-12-20T02:29:18.668Z,-4.52
2022-12-20T02:32:05.355Z,-4.52
2022-12-20T02:34:36.629Z,-4.37
2022-12-20T02:37:06.374Z,-4.27
2022-12-20T02:39:37.911Z,-4.10
2022-12-20T02:42:11.090Z,-4.10
2022-12-20T02:45:04.953Z,-4.00
2022-12-20T02:47:53.871Z,-3.94
2022-12-20T02:50:34.854Z,-3.86
2022-12-20T02:53:04.856Z,-3.81
2022-12-20T02:55:48.934Z,-3.77
2022-12-20T02:58:50.990Z,-3.73
2022-12-20T03:01:30.931Z,-3.70
2022-12-20T03:04:00.720Z,-3.65
2022-12-20T03:06:31.079Z,-3.64
2022-12-20T03:09:00.605Z,-3.60
2022-12-20T03:11:30.769Z,-3.57
2022-12-20T03:14:00.847Z,-3.54
2022-12-20T03:16:30.489Z,-3.50
2022-12-20T03:18:59.919Z,-3.45
2022-12-20T03:21:28.893Z,-3.40
2022-12-20T03:23:58.193Z,-3.38
2022-12-20T03:26:26.792Z,-3.35
2022-12-20T03:28:59.927Z,-3.31
2022-12-20T03:31:31.087Z,-3.28
2022-12-20T03:34:01.549Z,-3.24
2022-12-20T03:36:31.790Z,-3.21
2022-12-20T03:39:02.923Z,-3.18
2022-12-20T03:41:37.419Z,-3.16
2022-12-20T03:44:07.069Z,-3.13
2022-12-20T03:46:36.432Z,-3.10
2022-12-20T03:49:06.580Z,-3.08
2022-12-20T03:51:39.943Z,-3.07
2022-12-20T03:54:08.856Z,-3.04
2022-12-20T03:56:40.122Z,-3.02
2022-12-20T03:59:09.050Z,-3.01
2022-12-20T04:01:39.642Z,-3.00
2022-12-20T04:04:12.887Z,-2.98
2022-12-20T04:06:41.938Z,-2.97
2022-12-20T04:09:13.461Z,-2.95
2022-12-20T04:11:45.752Z,-2.94
2022-12-20T04:14:16.760Z,-2.91
2022-12-20T04:16:46.052Z,-2.88
2022-12-20T04:19:15.649Z,-2.84
2022-12-20T04:21:46.745Z,-2.80
2022-12-20T04:24:16.644Z,-2.77
2022-12-20T04:26:50.902Z,-2.74
2022-12-20T04:29:20.891Z,-2.71
2022-12-20T04:31:50.908Z,-2.69
2022-12-20T04:34:21.509Z,-2.65
2022-12-20T04:36:51.198Z,-2.61
2022-12-20T04:39:22.282Z,-2.56
2022-12-20T04:42:00.181Z,-2.51
2022-12-20T04:44:31.299Z,-2.46
2022-12-20T04:47:01.506Z,-2.43
2022-12-20T04:49:31.857Z,-2.39
2022-12-20T04:52:03.105Z,-2.34
2022-12-20T04:54:32.540Z,-2.31
2022-12-20T04:57:04.114Z,-2.27
2022-12-20T04:59:33.725Z,-2.20
2022-12-20T05:02:04.042Z,-2.15
2022-12-20T05:04:38.701Z,-2.10
2022-12-20T05:07:08.480Z,-2.05
2022-12-20T05:09:37.507Z,-2.01
2022-12-20T05:42:30.217Z,-1.22
2022-12-20T05:45:01.499Z,-1.24
2022-12-20T06:13:11.826Z,-0.25
2022-12-20T06:15:42.859Z,-0.39
2022-12-20T06:18:13.495Z,-0.51
2022-12-20T06:20:42.525Z,-0.60
2022-12-20T06:23:13.503Z,-0.67
2022-12-20T06:25:45.039Z,-0.72
2022-12-20T06:28:16.360Z,-0.76
2022-12-20T06:30:45.690Z,-0.80
2022-12-20T06:33:16.866Z,-0.82
2022-12-20T06:35:47.696Z,-0.85
2022-12-20T06:38:16.843Z,-0.86
2022-12-20T06:40:46.709Z,-0.88
2022-12-20T06:43:16.015Z,-0.90
2022-12-20T06:45:46.226Z,-0.91
2022-12-20T06:48:15.243Z,-0.93
2022-12-20T06:50:50.692Z,-0.97
2022-12-20T06:53:18.485Z,-0.98
2022-12-20T06:55:51.272Z,-1.00
2022-12-20T06:58:21.632Z,-1.00
2022-12-20T07:00:52.767Z,-1.01
2022-12-20T07:03:22.124Z,-1.00
2022-12-20T07:05:55.450Z,-1.00
2022-12-20T07:08:24.496Z,-0.98
2022-12-20T07:10:54.180Z,-0.95
2022-12-20T07:13:23.931Z,-0.92
2022-12-20T07:16:01.014Z,-0.87
2022-12-20T07:18:30.904Z,-0.83
2022-12-20T07:21:01.899Z,-0.79
2022-12-20T07:23:30.917Z,-0.75
2022-12-20T07:26:01.438Z,-0.71
2022-12-20T07:28:35.661Z,-0.69
2022-12-20T07:31:04.589Z,-0.66
2022-12-20T07:33:33.505Z,-0.62
2022-12-20T07:36:06.764Z,-0.61
2022-12-20T07:38:35.446Z,-0.59
2022-12-20T07:41:13.649Z,-0.57
2022-12-20T07:43:42.644Z,-0.56
2022-12-20T07:46:14.812Z,-0.55
2022-12-20T07:48:45.469Z,-0.55
2022-12-20T07:51:22.903Z,-0.54
2022-12-20T07:54:10.612Z,-0.52
2022-12-20T07:56:42.369Z,-0.50
2022-12-20T07:59:12.786Z,-0.47
2022-12-20T08:01:43.469Z,-0.44
2022-12-20T08:04:18.007Z,-0.43
2022-12-20T08:06:47.914Z,-0.42
2022-12-20T08:09:16.849Z,-0.42
2022-12-20T08:11:47.278Z,-0.39
2022-12-20T08:14:17.280Z,-0.39
2022-12-20T08:16:47.876Z,-0.39
2022-12-20T08:19:18.572Z,-0.38
2022-12-20T08:21:47.831Z,-0.39
2022-12-20T08:24:17.248Z,-0.38
2022-12-20T08:26:47.589Z,-0.36
2022-12-20T08:29:16.909Z,-0.36
2022-12-20T08:31:50.089Z,-0.35
2022-12-20T08:34:17.151Z,-0.33
2022-12-20T08:36:46.347Z,-0.31
2022-12-20T08:39:15.705Z,-0.28
2022-12-20T08:41:45.202Z,-0.26
2022-12-20T08:44:14.225Z,-0.24
2022-12-20T08:46:44.703Z,-0.21
2022-12-20T08:49:15.060Z,-0.20
2022-12-20T08:51:45.394Z,-0.18
2022-12-20T08:54:17.384Z,-0.15
2022-12-20T08:56:46.200Z,-0.12
2022-12-20T08:59:17.211Z,-0.09
2022-12-20T09:01:46.022Z,-0.08
2022-12-20T09:04:16.447Z,-0.09
2022-12-20T09:06:45.762Z,-0.07
2022-12-20T09:09:14.674Z,-0.03
2022-12-20T09:11:48.639Z,-0.02
2022-12-20T09:14:19.260Z,-0.02
2022-12-20T09:16:49.031Z,-0.01
2022-12-20T09:19:18.326Z,0.03
2022-12-20T09:21:47.101Z,0.04
2022-12-20T09:24:15.830Z,0.07
2022-12-20T09:26:45.702Z,0.11
2022-12-20T09:29:25.050Z,0.14
2022-12-20T09:31:49.909Z,0.15
2022-12-20T09:34:18.783Z,0.16
2022-12-20T09:36:47.384Z,0.18
2022-12-20T09:39:15.813Z,0.19
2022-12-20T09:41:45.407Z,0.21
2022-12-20T09:44:21.811Z,0.23
2022-12-20T09:47:11.067Z,0.22
2022-12-20T09:49:43.400Z,0.24
2022-12-20T09:52:49.720Z,0.25
2022-12-20T09:55:39.231Z,0.27
2022-12-20T09:58:38.064Z,0.29
2022-12-20T10:01:24.627Z,0.31
2022-12-20T10:03:51.062Z,0.33
2022-12-20T10:06:49.678Z,0.35
2022-12-20T10:09:45.167Z,0.36
2022-12-20T10:15:55.339Z,0.37
2022-12-20T10:18:58.551Z,0.29
2022-12-20T10:22:08.249Z,0.26
2022-12-20T10:24:37.828Z,0.23
2022-12-20T10:27:24.804Z,0.23
2022-12-20T10:29:59.976Z,0.21
2022-12-20T10:32:31.253Z,0.18
2022-12-20T10:35:15.980Z,0.17
2022-12-20T10:38:07.420Z,0.19
2022-12-20T10:43:22.529Z,0.21
2022-12-20T10:46:07.706Z,0.23
2022-12-20T10:48:40.834Z,0.22
2022-12-20T10:51:21.859Z,0.23
2022-12-20T10:54:03.304Z,0.25
2022-12-20T10:56:36.304Z,0.27
2022-12-20T10:59:22.240Z,0.29
2022-12-20T11:01:51.048Z,0.31
2022-12-20T11:04:33.214Z,0.34
2022-12-20T11:07:06.304Z,0.34
2022-12-20T11:09:36.660Z,0.35
2022-12-20T11:12:15.441Z,0.35
2022-12-20T11:14:45.723Z,0.37
2022-12-20T11:17:32.569Z,0.37
2022-12-20T11:20:31.301Z,0.39
2022-12-20T11:23:48.179Z,0.38
2022-12-20T11:26:25.358Z,0.40
2022-12-20T11:29:21.011Z,0.41
2022-12-20T11:32:27.963Z,0.43
2022-12-20T11:35:21.011Z,0.41
2022-12-20T11:38:02.623Z,0.41
2022-12-20T11:40:34.226Z,0.39
2022-12-20T11:44:15.698Z,0.40
2022-12-20T11:46:59.959Z,0.41
2022-12-20T11:50:06.302Z,0.44
2022-12-20T11:52:51.964Z,0.44
2022-12-20T11:55:27.514Z,0.45
2022-12-20T11:58:19.692Z,0.48
2022-12-20T12:00:43.460Z,0.48
2022-12-20T12:03:24.458Z,0.49
2022-12-20T12:06:06.936Z,0.49
2022-12-20T12:08:50.122Z,0.48
2022-12-20T12:13:59.522Z,0.49
2022-12-20T12:16:37.952Z,0.48
2022-12-20T12:19:11.018Z,0.49
2022-12-20T12:21:53.489Z,0.48
2022-12-20T12:24:32.847Z,0.52
2022-12-20T12:27:04.564Z,0.52
2022-12-20T12:29:37.238Z,0.52
2022-12-20T12:32:31.731Z,0.51
2022-12-20T12:35:29.455Z,0.51
2022-12-20T12:38:04.170Z,0.50
2022-12-20T12:41:13.190Z,0.49
2022-12-20T12:44:02.664Z,0.50
2022-12-20T12:46:48.908Z,0.51
2022-12-20T12:49:51.469Z,0.51
2022-12-20T12:52:58.158Z,0.49
2022-12-20T12:55:46.517Z,0.49
2022-12-20T12:58:32.678Z,0.49
2022-12-20T13:01:12.238Z,0.48
2022-12-20T13:03:50.691Z,0.47
2022-12-20T13:06:35.558Z,0.48
2022-12-20T13:09:15.687Z,0.48
2022-12-20T17:18:03.552Z,0.03
2022-12-20T17:20:36.808Z,0.04
2022-12-20T17:25:54.561Z,0.06
2022-12-20T17:28:25.970Z,0.09
2022-12-20T17:30:55.604Z,0.12
2022-12-20T17:33:24.770Z,0.14
2022-12-20T17:35:53.452Z,0.17
2022-12-20T17:38:22.412Z,0.19
2022-12-20T17:40:51.464Z,0.22
2022-12-20T17:43:21.165Z,0.24
2022-12-20T17:45:50.472Z,0.25
2022-12-20T17:48:19.472Z,0.26
2022-12-20T17:50:49.062Z,0.30
2022-12-20T17:53:17.789Z,0.34
2022-12-20T17:55:47.092Z,0.37
2022-12-20T17:58:16.248Z,0.37
2022-12-20T18:00:45.915Z,0.39
2022-12-20T18:03:44.949Z,0.41
2022-12-20T18:05:45.374Z,0.43
2022-12-20T18:08:15.118Z,0.46
2022-12-20T18:10:45.757Z,0.47
2022-12-20T18:13:15.795Z,0.48
2022-12-20T18:15:44.851Z,0.49
2022-12-20T18:18:14.506Z,0.51
2022-12-20T18:20:43.741Z,0.52
2022-12-20T18:23:14.796Z,0.55
2022-12-20T18:25:43.791Z,0.56
2022-12-20T18:28:13.849Z,0.57
2022-12-20T18:30:43.822Z,0.58
2022-12-20T18:33:13.649Z,0.60
2022-12-20T18:35:42.803Z,0.60
2022-12-20T18:38:13.717Z,0.61
2022-12-20T18:40:46.235Z,0.61
2022-12-20T18:43:16.788Z,0.63
2022-12-20T18:45:46.547Z,0.63
2022-12-20T18:48:15.357Z,0.63
2022-12-20T18:50:45.866Z,0.61
2022-12-20T18:53:15.190Z,0.63
2022-12-20T18:55:44.399Z,0.62
2022-12-20T18:58:16.261Z,0.62
2022-12-20T19:00:45.165Z,0.61
2022-12-20T19:03:14.142Z,0.59
2022-12-20T19:05:43.158Z,0.59
2022-12-20T19:08:13.329Z,0.58
2022-12-20T19:10:42.294Z,0.59
2022-12-20T19:13:11.507Z,0.59
2022-12-20T19:15:40.519Z,0.61
2022-12-20T19:18:09.978Z,0.61
2022-12-20T19:20:40.208Z,0.62
2022-12-20T19:23:09.707Z,0.63
2022-12-20T19:25:38.814Z,0.63
2022-12-20T19:28:08.659Z,0.63
2022-12-20T19:30:38.113Z,0.64
2022-12-20T19:33:07.427Z,0.64
2022-12-20T19:35:55.838Z,0.64
2022-12-20T19:38:09.133Z,0.68
2022-12-20T19:40:38.436Z,0.67
2022-12-20T19:43:09.047Z,0.69
2022-12-20T19:45:41.117Z,0.69
2022-12-20T19:48:10.605Z,0.72
2022-12-20T19:50:40.217Z,0.72
2022-12-20T19:53:10.709Z,0.73
2022-12-20T19:55:40.222Z,0.73
2022-12-20T19:58:10.105Z,0.74
2022-12-20T20:00:39.131Z,0.75
2022-12-20T20:03:09.676Z,0.76
2022-12-20T20:05:39.451Z,0.76
2022-12-20T20:08:08.939Z,0.77
2022-12-20T20:10:38.215Z,0.78
2022-12-20T20:13:07.940Z,0.79
2022-12-20T20:15:37.477Z,0.80
2022-12-20T20:18:07.061Z,0.80
2022-12-20T20:20:39.599Z,0.81
2022-12-20T20:23:08.459Z,0.83
2022-12-20T20:25:38.665Z,0.83
2022-12-20T20:28:08.116Z,0.82
2022-12-20T20:30:43.871Z,0.82
2022-12-20T20:33:13.690Z,0.85
2022-12-20T20:35:43.009Z,0.84
2022-12-20T20:38:12.577Z,0.86
2022-12-20T20:40:42.619Z,0.88
2022-12-20T20:43:13.579Z,0.88
2022-12-20T20:45:43.487Z,0.89
2022-12-20T20:48:12.554Z,0.90
2022-12-20T20:50:41.798Z,0.90
2022-12-20T20:53:11.824Z,0.90
2022-12-20T20:55:41.261Z,0.91
2022-12-20T20:58:10.713Z,0.91
2022-12-20T21:00:39.919Z,0.91
2022-12-20T21:03:09.316Z,0.91
2022-12-20T21:08:12.073Z,0.91
2022-12-20T21:10:42.989Z,0.91
2022-12-20T21:13:12.095Z,0.94
2022-12-20T21:15:43.276Z,0.94
2022-12-20T21:18:12.037Z,0.94
2022-12-20T21:20:41.395Z,0.95
2022-12-20T21:23:11.061Z,0.96
2022-12-20T21:25:39.956Z,0.98
2022-12-20T21:28:09.909Z,0.99
2022-12-20T21:30:40.183Z,0.99
2022-12-20T21:33:09.137Z,1.01
2022-12-20T21:35:38.656Z,1.02
2022-12-20T21:38:10.328Z,1.03
2022-12-20T21:40:39.707Z,1.02
2022-12-20T21:43:08.605Z,1.04
2022-12-20T21:45:37.539Z,1.05
2022-12-20T21:48:08.467Z,1.06
2022-12-20T21:50:37.619Z,1.05
2022-12-20T21:53:07.031Z,1.04
2022-12-20T21:55:36.633Z,1.05
2022-12-20T21:58:05.526Z,1.06
2022-12-20T22:00:34.756Z,1.06
2022-12-20T22:03:04.531Z,1.06
2022-12-20T22:05:34.359Z,1.07
2022-12-20T22:08:04.129Z,1.08
2022-12-20T22:10:34.282Z,1.09
2022-12-20T22:13:05.124Z,1.09
2022-12-20T22:15:35.242Z,1.08
2022-12-20T22:18:07.822Z,1.10
2022-12-20T22:20:37.867Z,1.10
2022-12-20T22:23:08.574Z,1.12
2022-12-20T22:25:38.283Z,1.12
2022-12-20T22:28:07.313Z,1.12
2022-12-20T22:30:41.736Z,1.13
2022-12-20T22:33:10.763Z,1.14
2022-12-20T22:35:41.069Z,1.15
2022-12-20T22:38:10.128Z,1.17
2022-12-20T22:40:40.140Z,1.18
2022-12-20T22:43:09.639Z,1.19
2022-12-20T22:45:39.316Z,1.20
2022-12-20T22:48:09.104Z,1.22
2022-12-20T22:50:39.108Z,1.23
2022-12-20T22:53:08.788Z,1.24
2022-12-20T22:55:38.789Z,1.23
2022-12-20T22:58:07.904Z,1.22
2022-12-20T23:00:38.165Z,1.21
2022-12-20T23:03:08.756Z,1.22
2022-12-20T23:05:38.448Z,1.21
2022-12-20T23:08:07.781Z,1.22
2022-12-20T23:10:58.685Z,1.22
2022-12-20T23:13:46.115Z,1.23
2022-12-20T23:16:14.896Z,1.23
2022-12-20T23:18:44.646Z,1.24
2022-12-20T23:21:35.316Z,1.25
2022-12-20T23:24:04.999Z,1.26
2022-12-20T23:26:35.974Z,1.27
2022-12-20T23:29:05.891Z,1.28
2022-12-20T23:31:36.211Z,1.29
2022-12-20T23:34:04.989Z,1.28
2022-12-20T23:36:35.055Z,1.28
2022-12-20T23:39:04.252Z,1.28
2022-12-20T23:41:33.469Z,1.29
2022-12-20T23:44:05.363Z,1.31
2022-12-20T23:46:34.223Z,1.31
2022-12-20T23:49:04.329Z,1.33
2022-12-20T23:51:34.950Z,1.34
2022-12-20T23:54:04.629Z,1.35
2022-12-20T23:56:34.467Z,1.37
2022-12-20T23:59:03.511Z,1.37
